This is the latest recevied weather packets stored in our database for station/object VK2KGV-15. If no packets are shown the sender has not sent any weather packets the latest 10 day(s).
| Time | Temp. | Humidity | Pressure | Rain* | Wind** | Luminosity | Snow |
|---|---|---|---|---|---|---|---|
| 1788372519 | 7.78° C | 88% | 1019.4 hPa | 0 mm | - | - | - |
| 1788371916 | 7.78° C | 89% | 1019.3 hPa | 0 mm | - | - | - |
| 1788371315 | 7.78° C | 89% | 1019.3 hPa | 0 mm | - | - | - |
| 1788370106 | 7.22° C | 91% | 1019.4 hPa | 0 mm | - | - | - |
| 1788368900 | 6.67° C | 88% | 1019.5 hPa | 0 mm | - | - | - |
| 1788367707 | 6.67° C | 87% | 1019.7 hPa | 0 mm | - | - | - |
| 1788366488 | 7.22° C | 86% | 1019.7 hPa | 0 mm | - | - | - |
| 1788363472 | 7.22° C | 87% | 1019.8 hPa | 0 mm | - | - | - |
| 1788362869 | 7.78° C | 84% | 1019.7 hPa | 0 mm | - | - | - |
| 1788361663 | 7.78° C | 85% | 1020 hPa | 0 mm | - | - | - |
| 1788361060 | 7.78° C | 84% | 1020 hPa | 0 mm | - | - | - |
| 1788360457 | 7.78° C | 84% | 1019.9 hPa | 0 mm | - | - | - |
| 1788359250 | 8.33° C | 83% | 1020 hPa | 0 mm | - | - | - |
| 1788356838 | 8.89° C | 80% | 1020.2 hPa | 0 mm | - | - | - |
| 1788355635 | 9.44° C | 79% | 1020.2 hPa | 0 mm | - | - | - |
| 1788353228 | 10.56° C | 77% | 1020.2 hPa | 0 mm | - | - | - |
| 1788352013 | 11.11° C | 76% | 1020.3 hPa | 0 mm | - | - | - |
| 1788349601 | 12.22° C | 75% | 1020.3 hPa | 0 mm | - | - | - |
| 1788348394 | 11.67° C | 75% | 1020.3 hPa | 0 mm | - | - | - |
| 1788347792 | 11.67° C | 75% | 1020.1 hPa | 0 mm | - | - | - |
| 1788347188 | 11.67° C | 75% | 1020.2 hPa | 0 mm | - | - | - |
| 1788345982 | 11.67° C | 73% | 1020.1 hPa | 0 mm | - | - | - |
| 1788342363 | 14.44° C | 63% | 1019.6 hPa | 0 mm | - | - | - |
| 1788339951 | 16.11° C | 60% | 1019.3 hPa | 0 mm | - | - | - |
| 1788338745 | 16.67° C | 57% | 1019.2 hPa | 0 mm | - | - | - |
* Rain since midnight (hover to see other rain measurements)
** Current wind speed in m/s (hover to see current wind gust speed)